Time;durP1;ratioP1;P1;durP2;ratioP2;P2;SDS_P1;SDS_P2;PMS_P1;PMS_P2;Temp;Humidity;BMP_temperature;BMP_pressure;BME280_temperature;BME280_humidity;BME280_pressure;Samples;Min_cycle;Max_cycle;Signal;HPM_P1;HPM_P2
2022/10/25 00:02:31;;;;;;;0.90;0.90;;;;;;;12.39;100.00;96632.56;5070409;27;105852;-61
2022/10/25 00:04:58;;;;;;;1.13;1.00;;;;;;;12.37;100.00;96634.69;5071229;27;101783;-61
2022/10/25 00:07:25;;;;;;;1.50;0.90;;;;;;;12.41;100.00;96641.94;5070669;27;105202;-61
2022/10/25 00:09:52;;;;;;;1.37;1.20;;;;;;;12.51;100.00;96633.19;5073677;27;105182;-61
2022/10/25 00:12:25;;;;;;;1.07;0.97;;;;;;;12.54;100.00;96635.34;5071149;27;105971;-61
2022/10/25 00:14:54;;;;;;;1.90;1.20;;;;;;;12.54;100.00;96638.03;5069896;27;105112;-61
2022/10/25 00:17:21;;;;;;;1.40;1.30;;;;;;;12.55;100.00;96634.28;5070706;27;102401;-61
2022/10/25 00:19:48;;;;;;;1.23;1.17;;;;;;;12.51;100.00;96635.84;5070568;27;105203;-61
2022/10/25 00:22:17;;;;;;;1.20;1.20;;;;;;;12.42;100.00;96648.06;5070132;27;105453;-61
2022/10/25 00:25:21;;;;;;;1.23;1.17;;;;;;;12.41;100.00;96641.94;5070828;27;102301;-61
2022/10/25 00:27:48;;;;;;;4.30;1.30;;;;;;;12.35;100.00;96642.13;5072144;27;102688;-61
2022/10/25 00:30:16;;;;;;;1.77;1.67;;;;;;;12.29;100.00;96645.81;5071427;27;102947;-61
2022/10/25 00:36:08;;;;;;;2.10;1.40;;;;;;;12.32;100.00;96658.66;5070046;27;105131;-61
2022/10/25 00:38:36;;;;;;;2.47;1.40;;;;;;;12.31;100.00;96655.19;5070439;27;102076;-61
2022/10/25 00:41:05;;;;;;;2.00;1.33;;;;;;;12.24;100.00;96657.25;5070428;27;103672;-61
2022/10/25 00:43:34;;;;;;;1.60;1.50;;;;;;;12.21;100.00;96646.31;5069944;27;105599;-61
2022/10/25 00:46:07;;;;;;;1.60;1.50;;;;;;;12.09;100.00;96650.97;5070293;27;102623;-61
2022/10/25 00:48:34;;;;;;;2.30;1.50;;;;;;;12.06;100.00;96649.66;5071270;27;102889;-61
2022/10/25 00:55:33;;;;;;;3.07;1.67;;;;;;;12.07;100.00;96658.44;5072054;27;101750;-61
2022/10/25 00:58:04;;;;;;;2.73;1.50;;;;;;;11.99;100.00;96657.03;5069427;27;105259;-61
2022/10/25 01:00:31;;;;;;;1.80;1.70;;;;;;;12.00;100.00;96655.19;5070341;27;102296;-61
2022/10/25 01:03:50;;;;;;;3.03;1.93;;;;;;;12.05;100.00;96650.69;5069486;27;105771;-61
2022/10/25 01:06:23;;;;;;;1.70;1.60;;;;;;;12.01;100.00;96656.78;5069688;27;105628;-61
2022/10/25 01:08:52;;;;;;;1.77;1.50;;;;;;;12.03;100.00;96644.00;5049143;27;101909;-61
2022/10/25 01:11:22;;;;;;;1.60;1.50;;;;;;;11.95;100.00;96647.13;5049847;27;103511;-61
2022/10/25 01:13:50;;;;;;;1.60;1.50;;;;;;;11.93;100.00;96647.38;5049571;27;103699;-61
2022/10/25 01:16:25;;;;;;;2.10;1.63;;;;;;;11.91;100.00;96635.34;5069741;27;101964;-61
2022/10/25 01:19:01;;;;;;;2.40;1.70;;;;;;;11.84;100.00;96638.22;5073031;27;103616;-61
2022/10/25 01:22:09;;;;;;;3.03;1.80;;;;;;;11.77;100.00;96642.16;5064537;27;102013;-61
2022/10/25 01:25:08;;;;;;;1.90;1.80;;;;;;;11.69;100.00;96643.41;5049549;27;104214;-61
2022/10/25 01:28:00;;;;;;;1.60;1.50;;;;;;;11.69;100.00;96637.25;5059021;27;104455;-61
2022/10/25 01:30:44;;;;;;;1.80;1.70;;;;;;;11.66;100.00;96632.47;5069724;27;101850;-61
2022/10/25 01:33:21;;;;;;;1.60;1.50;;;;;;;11.55;100.00;96638.69;5069910;27;104907;-61
2022/10/25 01:35:56;;;;;;;1.93;1.60;;;;;;;11.43;100.00;96641.50;5068832;27;104017;-61
2022/10/25 01:38:34;;;;;;;3.70;1.90;;;;;;;11.45;100.00;96636.72;5069870;27;101813;-61
2022/10/25 01:41:36;;;;;;;3.13;2.07;;;;;;;11.39;100.00;96637.72;5069490;27;105233;-61
2022/10/25 01:44:20;;;;;;;1.70;1.60;;;;;;;11.31;100.00;96629.34;5072279;27;105579;-61
2022/10/25 01:46:53;;;;;;;2.77;2.00;;;;;;;11.28;100.00;96628.00;5071337;27;102321;-61
2022/10/25 01:49:26;;;;;;;2.20;2.00;;;;;;;11.29;100.00;96626.94;5068837;27;104255;-61
2022/10/25 01:52:05;;;;;;;2.10;2.00;;;;;;;11.34;100.00;96618.22;5071120;27;101701;-61
2022/10/25 01:55:06;;;;;;;3.23;2.20;;;;;;;11.29;100.00;96624.28;5068890;27;105120;-61
2022/10/25 01:57:47;;;;;;;2.63;2.17;;;;;;;11.29;100.00;96626.16;5068602;27;104984;-61
2022/10/25 02:00:17;;;;;;;3.17;2.00;;;;;;;11.29;100.00;96624.28;5069357;27;101817;-61
2022/10/25 02:06:23;;;;;;;2.40;2.20;;;;;;;11.38;100.00;96613.97;5070042;27;103136;-61
2022/10/25 02:08:57;;;;;;;2.53;2.07;;;;;;;11.38;100.00;96609.47;5055225;27;101906;-61
2022/10/25 02:11:31;;;;;;;3.23;2.10;;;;;;;11.38;100.00;96613.97;5068904;27;105261;-61
2022/10/25 02:14:13;;;;;;;2.40;2.30;;;;;;;11.39;100.00;96616.41;5068821;27;101851;-61
2022/10/25 02:16:45;;;;;;;2.30;2.10;;;;;;;11.37;100.00;96615.03;5068861;27;105289;-61
2022/10/25 02:19:15;;;;;;;2.33;2.13;;;;;;;11.36;100.00;96616.91;5068834;27;105361;-61
2022/10/25 02:22:14;;;;;;;2.10;2.00;;;;;;;11.33;100.00;96616.63;5072853;27;101752;-61
2022/10/25 02:25:02;;;;;;;2.20;2.10;;;;;;;11.20;100.00;96606.34;5072485;27;105087;-61
2022/10/25 02:27:32;;;;;;;3.00;2.10;;;;;;;11.05;100.00;96598.16;5071881;27;105710;-61
2022/10/25 02:30:00;;;;;;;2.30;2.10;;;;;;;10.91;100.00;96607.56;5072509;27;101934;-61
2022/10/25 02:32:32;;;;;;;1.90;1.80;;;;;;;10.93;100.00;96608.13;5075449;27;104383;-61
2022/10/25 02:34:59;;;;;;;2.60;2.40;;;;;;;10.96;100.00;96620.94;5072376;27;101904;-61
2022/10/25 02:37:28;;;;;;;2.30;2.10;;;;;;;11.03;100.00;96621.56;5073818;27;102914;-61
2022/10/25 02:39:56;;;;;;;2.43;2.23;;;;;;;11.12;100.00;96620.09;5072053;27;105129;-61
2022/10/25 02:42:23;;;;;;;2.13;2.00;;;;;;;11.15;100.00;96619.59;5072346;27;101967;-61
2022/10/25 02:44:50;;;;;;;2.90;1.90;;;;;;;11.18;100.00;96614.56;5072006;27;105499;-61
2022/10/25 02:47:17;;;;;;;3.50;2.20;;;;;;;11.18;100.00;96613.78;5071509;27;105392;-61
2022/10/25 02:49:45;;;;;;;3.43;2.10;;;;;;;11.21;100.00;96615.91;5074008;27;101752;-61
2022/10/25 02:52:14;;;;;;;2.20;2.00;;;;;;;11.25;100.00;96615.19;5072206;27;103984;-61
2022/10/25 02:55:00;;;;;;;1.93;1.83;;;;;;;11.32;100.00;96617.66;5074820;27;101810;-61
2022/10/25 02:57:32;;;;;;;2.30;2.03;;;;;;;11.34;100.00;96618.22;5072316;27;104904;-61
2022/10/25 02:59:59;;;;;;;2.80;2.13;;;;;;;11.36;100.00;96616.09;5071219;27;105033;-61
2022/10/25 03:03:05;;;;;;;2.57;2.00;;;;;;;11.37;100.00;96623.84;5072185;27;102064;-61
2022/10/25 03:05:33;;;;;;;2.47;2.23;;;;;;;11.38;100.00;96635.28;5071950;27;105996;-61
2022/10/25 03:08:01;;;;;;;1.80;1.70;;;;;;;11.42;100.00;96636.41;5071477;27;103936;-61
2022/10/25 03:10:29;;;;;;;2.47;2.10;;;;;;;11.45;100.00;96638.59;5071628;27;101908;-61
2022/10/25 03:13:01;;;;;;;1.83;1.70;;;;;;;11.50;100.00;96635.97;5071958;27;105348;-61
2022/10/25 03:15:28;;;;;;;2.17;1.90;;;;;;;11.53;100.00;96643.47;5074359;27;104281;-61
2022/10/25 03:17:55;;;;;;;1.77;1.60;;;;;;;11.58;100.00;96646.19;5071847;27;105396;-61
2022/10/25 03:20:22;;;;;;;2.40;1.80;;;;;;;11.60;100.00;96644.91;5071238;27;105141;-61
2022/10/25 03:22:49;;;;;;;1.70;1.60;;;;;;;11.58;100.00;96649.66;5071519;27;101835;-61
2022/10/25 03:25:27;;;;;;;1.87;1.70;;;;;;;11.60;100.00;96655.56;5071508;27;103828;-61
2022/10/25 03:27:56;;;;;;;2.27;1.70;;;;;;;11.72;100.00;96653.56;5070937;27;104477;-61
2022/10/25 03:30:23;;;;;;;1.70;1.40;;;;;;;11.80;100.00;96654.97;5071570;27;101859;-61
2022/10/25 03:33:09;;;;;;;1.63;1.53;;;;;;;11.82;100.00;96659.00;5071491;27;104005;-61
2022/10/25 03:35:36;;;;;;;1.60;1.50;;;;;;;11.85;100.00;96665.69;5058028;27;105412;-61
2022/10/25 03:38:04;;;;;;;1.50;1.40;;;;;;;11.88;100.00;96663.31;5075105;27;101966;-61
2022/10/25 03:40:31;;;;;;;1.53;1.37;;;;;;;11.86;100.00;96656.63;5070990;27;106078;-61
2022/10/25 03:43:35;;;;;;;1.70;1.60;;;;;;;11.85;100.00;96671.00;5071330;27;102025;-61
2022/10/25 03:46:03;;;;;;;1.73;1.63;;;;;;;11.87;100.00;96667.03;5071365;27;105556;-61
2022/10/25 03:48:30;;;;;;;1.80;1.57;;;;;;;11.97;100.00;96663.66;5069756;27;105495;-61
2022/10/25 03:54:34;;;;;;;1.77;1.30;;;;;;;11.94;100.00;96651.63;5072462;27;103043;-61
2022/10/25 03:57:02;;;;;;;1.30;1.27;;;;;;;11.99;100.00;96661.56;5070256;27;105764;-61
2022/10/25 03:59:30;;;;;;;1.30;1.20;;;;;;;11.99;100.00;96666.91;5072586;27;101855;-61
2022/10/25 04:05:44;;;;;;;1.77;1.43;;;;;;;12.01;100.00;96662.91;5060894;27;101839;-61
2022/10/25 04:08:11;;;;;;;1.40;1.40;;;;;;;11.96;100.00;96657.53;5072266;27;102995;-61
2022/10/25 04:10:38;;;;;;;1.10;1.10;;;;;;;11.95;100.00;96674.56;5070251;27;104230;-61
2022/10/25 04:13:32;;;;;;;1.57;1.27;;;;;;;12.00;100.00;96676.50;5072308;27;101821;-61
2022/10/25 04:16:05;;;;;;;1.43;1.33;;;;;;;12.01;100.00;96672.78;5071969;27;102930;-61
2022/10/25 04:18:32;;;;;;;1.70;1.20;;;;;;;12.04;100.00;96674.94;5071708;27;102576;-61
2022/10/25 04:21:23;;;;;;;1.30;1.20;;;;;;;12.06;100.00;96662.97;5072404;27;101862;-61
2022/10/25 04:23:50;;;;;;;1.30;1.20;;;;;;;12.08;100.00;96666.19;5072308;27;102366;-61
2022/10/25 04:26:18;;;;;;;1.40;1.30;;;;;;;12.12;100.00;96677.13;5073485;27;104279;-61
2022/10/25 04:28:50;;;;;;;1.40;1.30;;;;;;;12.13;100.00;96673.41;5070635;27;106191;-61
2022/10/25 04:31:24;;;;;;;1.97;1.80;;;;;;;12.11;100.00;96675.53;5070017;27;106412;-61
2022/10/25 04:33:53;;;;;;;1.97;1.83;;;;;;;12.12;100.00;96666.47;5070601;27;102040;-61
2022/10/25 04:36:21;;;;;;;0.97;0.93;;;;;;;12.08;100.00;96660.03;5070379;27;104007;-61
2022/10/25 04:38:48;;;;;;;0.97;0.97;;;;;;;12.04;100.00;96654.41;5070051;27;104179;-61
2022/10/25 04:41:15;;;;;;;1.30;1.20;;;;;;;12.05;100.00;96676.53;5070221;27;101861;-61
2022/10/25 04:43:43;;;;;;;1.50;1.03;;;;;;;11.97;100.00;96672.47;5069819;27;105430;-61
2022/10/25 04:46:09;;;;;;;1.30;1.20;;;;;;;11.98;100.00;96679.41;5069309;27;105070;-61
2022/10/25 04:48:38;;;;;;;1.20;1.10;;;;;;;11.98;100.00;96675.91;5073785;27;102057;-61
2022/10/25 04:55:11;;;;;;;1.47;1.10;;;;;;;12.00;100.00;96687.94;5068469;27;102061;-61
2022/10/25 04:57:39;;;;;;;1.23;1.20;;;;;;;12.03;100.00;96691.97;5070259;27;105227;-62
2022/10/25 05:00:06;;;;;;;1.20;1.20;;;;;;;12.00;100.00;96692.50;5070718;27;102703;-62
2022/10/25 05:03:06;;;;;;;3.53;1.30;;;;;;;12.02;100.00;96679.69;5070084;27;101898;-62
2022/10/25 05:05:35;;;;;;;1.17;1.10;;;;;;;11.95;100.00;96687.09;5070297;27;105133;-62
2022/10/25 05:08:02;;;;;;;1.20;1.20;;;;;;;11.95;100.00;96684.44;5070566;27;103189;-62
2022/10/25 05:10:29;;;;;;;1.60;1.50;;;;;;;11.96;100.00;96678.88;5073452;27;101940;-62
2022/10/25 05:12:56;;;;;;;1.60;1.50;;;;;;;11.95;100.00;96676.44;5069433;27;105194;-62
2022/10/25 05:15:23;;;;;;;3.97;3.10;;;;;;;11.84;100.00;96683.50;5069623;27;101789;-62
2022/10/25 05:17:50;;;;;;;1.73;1.50;;;;;;;11.84;100.00;96678.19;5069823;27;105242;-62
2022/10/25 05:20:18;;;;;;;2.00;1.67;;;;;;;11.79;100.00;96674.69;5069479;27;104215;-62
2022/10/25 05:23:08;;;;;;;2.47;2.00;;;;;;;11.79;100.00;96680.00;5069533;27;102012;-62
2022/10/25 05:25:37;;;;;;;2.50;2.03;;;;;;;11.76;100.00;96686.63;5069770;27;104091;-62
2022/10/25 05:28:05;;;;;;;2.90;2.70;;;;;;;11.78;100.00;96681.06;5069259;27;103898;-62
2022/10/25 05:30:32;;;;;;;10.00;7.73;;;;;;;11.75;100.00;96679.72;5069704;27;101952;-62
2022/10/25 05:33:07;;;;;;;3.50;3.07;;;;;;;11.72;100.00;96682.06;5072532;27;103988;-62
2022/10/25 05:35:34;;;;;;;4.17;3.23;;;;;;;11.77;100.00;96684.78;5069637;27;101873;-62
2022/10/25 05:38:02;;;;;;;1.93;1.70;;;;;;;11.73;100.00;96679.13;5069551;27;103802;-62
2022/10/25 05:40:30;;;;;;;2.13;1.93;;;;;;;11.75;100.00;96670.91;5068788;27;104009;-62
2022/10/25 05:43:13;;;;;;;2.80;2.23;;;;;;;11.79;100.00;96674.69;5069686;27;101813;-62
2022/10/25 05:45:40;;;;;;;2.20;2.00;;;;;;;11.78;100.00;96681.06;5067658;27;105246;-62
2022/10/25 05:48:07;;;;;;;2.07;1.97;;;;;;;11.76;100.00;96680.50;5059168;27;105775;-62
2022/10/25 05:50:35;;;;;;;1.90;1.80;;;;;;;11.77;100.00;96690.13;5062239;27;103136;-62
2022/10/25 05:56:50;;;;;;;12.37;11.17;;;;;;;11.62;100.00;96696.06;5072598;27;102835;-62
2022/10/25 05:59:17;;;;;;;4.13;3.10;;;;;;;11.58;100.00;96694.94;5065022;27;102501;-62
2022/10/25 06:01:55;;;;;;;2.60;2.40;;;;;;;11.60;100.00;96703.50;5062244;27;104264;-62
2022/10/25 06:04:22;;;;;;;3.63;3.30;;;;;;;11.61;100.00;96714.97;5065059;27;102944;-62
2022/10/25 06:06:50;;;;;;;3.50;2.20;;;;;;;11.61;100.00;96709.66;5069941;27;105221;-62
2022/10/25 06:09:18;;;;;;;3.00;1.90;;;;;;;11.65;100.00;96706.22;5068991;27;104021;-62
2022/10/25 06:11:55;;;;;;;1.97;1.80;;;;;;;11.66;100.00;96707.06;5072563;27;102359;-62
2022/10/25 06:14:22;;;;;;;2.20;2.10;;;;;;;11.67;100.00;96713.97;5071086;27;104068;-62
2022/10/25 06:16:49;;;;;;;2.40;2.20;;;;;;;11.69;100.00;96707.34;5067598;27;105356;-62
2022/10/25 06:19:16;;;;;;;3.00;2.70;;;;;;;11.66;100.00;96723.03;5080367;27;102506;-62
2022/10/25 06:25:45;;;;;;;2.47;2.23;;;;;;;11.88;100.00;96727.28;5070839;27;101781;-62
2022/10/25 06:28:14;;;;;;;3.23;2.70;;;;;;;11.92;100.00;96733.72;5072485;27;105143;-62
2022/10/25 06:30:41;;;;;;;3.00;2.70;;;;;;;11.91;100.00;96741.94;5073011;27;102635;-62
2022/10/25 06:33:08;;;;;;;2.70;2.50;;;;;;;11.94;100.00;96746.81;5073425;27;101807;-62
2022/10/25 06:35:35;;;;;;;2.53;2.20;;;;;;;11.94;100.00;96757.47;5074015;27;102465;-62
2022/10/25 06:38:02;;;;;;;4.60;2.37;;;;;;;11.89;100.00;96768.06;5071579;27;104064;-62
2022/10/25 06:40:29;;;;;;;5.57;2.73;;;;;;;11.97;100.00;96754.28;5072367;27;101861;-62
2022/10/25 06:46:23;;;;;;;3.10;2.80;;;;;;;12.02;100.00;96754.34;5072464;27;101739;-62
2022/10/25 06:48:51;;;;;;;7.53;6.43;;;;;;;12.05;100.00;96757.31;5071980;27;105867;-62
2022/10/25 06:51:30;;;;;;;2.10;2.00;;;;;;;12.08;100.00;96758.66;5070970;27;105873;-62
2022/10/25 06:57:45;;;;;;;5.43;4.80;;;;;;;12.13;100.00;96751.53;5050212;27;102153;-62
2022/10/25 07:00:13;;;;;;;2.50;2.30;;;;;;;12.14;100.00;96752.31;5057868;27;102621;-62
2022/10/25 07:02:53;;;;;;;2.67;2.47;;;;;;;12.16;100.00;96760.91;5072224;27;102112;-62
2022/10/25 07:05:20;;;;;;;3.30;2.07;;;;;;;12.22;100.00;96770.56;5072700;27;102580;-62
2022/10/25 07:07:47;;;;;;;2.93;2.17;;;;;;;12.26;100.00;96766.34;5074830;27;103967;-62
2022/10/25 07:10:14;;;;;;;4.43;1.97;;;;;;;12.35;100.00;96768.28;5071675;27;104830;-62
2022/10/25 07:13:10;;;;;;;2.33;2.13;;;;;;;12.51;100.00;96762.06;5071416;27;105409;-62
2022/10/25 07:15:37;;;;;;;2.57;2.20;;;;;;;12.52;100.00;96770.84;5071460;27;102079;-62
2022/10/25 07:18:05;;;;;;;2.17;2.03;;;;;;;12.53;100.00;96775.16;5071795;27;104915;-62
2022/10/25 07:20:32;;;;;;;4.53;4.13;;;;;;;12.54;100.00;96776.75;5071179;27;103903;-62
2022/10/25 07:23:01;;;;;;;2.30;2.10;;;;;;;12.58;100.00;96780.50;5071891;27;102148;-62
2022/10/25 07:25:39;;;;;;;3.33;2.97;;;;;;;12.56;100.00;96777.28;5073109;27;102566;-62
2022/10/25 07:28:06;;;;;;;2.03;1.93;;;;;;;12.64;100.00;96779.50;5074535;27;104028;-62
2022/10/25 07:30:33;;;;;;;2.53;1.80;;;;;;;12.69;100.00;96771.53;5071443;27;103727;-62
2022/10/25 07:33:26;;;;;;;2.13;1.70;;;;;;;12.68;100.00;96770.72;5071177;27;105214;-62
2022/10/25 07:35:53;;;;;;;2.30;2.20;;;;;;;12.65;100.00;96779.22;5071637;27;102006;-62
2022/10/25 07:38:21;;;;;;;4.20;1.97;;;;;;;12.75;100.00;96778.53;5071231;27;105613;-62
2022/10/25 07:41:20;;;;;;;2.00;1.87;;;;;;;12.91;100.00;96774.94;5070886;27;105523;-62
2022/10/25 07:43:47;;;;;;;2.10;2.00;;;;;;;12.90;100.00;96773.31;5071247;27;101864;-62
2022/10/25 07:46:15;;;;;;;2.10;1.90;;;;;;;12.93;100.00;96767.47;5071085;27;102511;-62
2022/10/25 07:48:43;;;;;;;1.87;1.77;;;;;;;13.01;100.00;96778.50;5070105;27;105484;-62
2022/10/25 07:51:14;;;;;;;2.77;2.13;;;;;;;12.99;100.00;96777.97;5075723;27;101831;-62
2022/10/25 07:53:41;;;;;;;2.27;1.50;;;;;;;13.01;100.00;96783.84;5064505;27;105019;-62
2022/10/25 07:56:13;;;;;;;1.60;1.50;;;;;;;13.14;100.00;96783.41;5071600;27;102316;-63
2022/10/25 07:58:39;;;;;;;1.43;1.30;;;;;;;13.08;100.00;96783.63;5070534;27;105658;-63
2022/10/25 08:02:00;;;;;;;3.50;2.00;;;;;;;13.12;100.00;96782.84;5070584;27;104975;-63
2022/10/25 08:04:31;;;;;;;2.63;1.60;;;;;;;13.13;100.00;96781.00;5071110;27;101942;-63
2022/10/25 08:07:00;;;;;;;2.23;1.80;;;;;;;13.20;100.00;96781.59;5071196;27;105563;-63
2022/10/25 08:09:27;;;;;;;2.27;1.50;;;;;;;13.26;100.00;96777.88;5053906;27;103908;-63
2022/10/25 08:12:06;;;;;;;1.70;1.60;;;;;;;13.37;100.00;96769.69;5066957;27;101858;-62
2022/10/25 08:14:33;;;;;;;1.93;1.50;;;;;;;13.47;100.00;96772.38;5071351;27;103867;-63
2022/10/25 08:17:00;;;;;;;1.30;1.20;;;;;;;13.47;100.00;96761.69;5069607;27;101952;-63
2022/10/25 08:19:28;;;;;;;1.83;1.70;;;;;;;13.53;100.00;96768.69;5070817;27;104794;-63
2022/10/25 08:22:22;;;;;;;1.93;1.57;;;;;;;13.56;100.00;96767.34;5070154;27;105616;-63
2022/10/25 08:25:15;;;;;;;1.33;1.30;;;;;;;13.75;100.00;96765.88;4991878;28;102066;-63
2022/10/25 08:27:42;;;;;;;1.47;1.30;;;;;;;13.82;100.00;96761.88;4988823;28;105377;-63
2022/10/25 08:30:11;;;;;;;1.33;1.30;;;;;;;13.88;100.00;96762.69;5027893;28;103855;-63
2022/10/25 08:32:38;;;;;;;2.03;1.50;;;;;;;13.95;100.00;96761.38;4974039;28;102015;-63
2022/10/25 08:35:08;;;;;;;1.30;1.20;;;;;;;13.95;100.00;96765.94;4995849;28;105312;-63
2022/10/25 08:37:36;;;;;;;1.53;1.00;;;;;;;14.05;100.00;96755.25;4994877;28;104465;-64
2022/10/25 08:40:03;;;;;;;1.53;1.40;;;;;;;14.15;100.00;96749.94;5008892;28;105327;-64
2022/10/25 08:42:59;;;;;;;3.40;1.10;;;;;;;14.35;100.00;96758.06;5008034;28;103920;-61
2022/10/25 08:45:35;;;;;;;1.53;1.30;;;;;;;14.68;100.00;96757.56;5004564;28;102218;-62
2022/10/25 08:48:04;;;;;;;1.27;1.23;;;;;;;14.85;100.00;96755.44;4970877;28;105755;-61
2022/10/25 08:50:38;;;;;;;2.77;1.20;;;;;;;14.76;100.00;96749.00;4988309;28;103322;-61
2022/10/25 08:53:23;;;;;;;1.77;1.30;;;;;;;14.69;100.00;96746.59;4971893;28;102227;-61
2022/10/25 08:56:05;;;;;;;1.13;1.00;;;;;;;14.77;100.00;96748.72;4971668;28;105617;-60
2022/10/25 08:58:37;;;;;;;1.37;1.17;;;;;;;15.19;100.00;96751.94;4970378;28;105434;-61
2022/10/25 09:01:16;;;;;;;1.53;1.13;;;;;;;15.21;100.00;96748.97;4980056;27;102032;-60
2022/10/25 09:03:44;;;;;;;1.03;0.93;;;;;;;15.30;100.00;96750.03;5065278;27;104457;-62
2022/10/25 09:06:23;;;;;;;2.90;1.10;;;;;;;15.16;100.00;96738.28;5069543;27;101969;-63
2022/10/25 09:09:04;;;;;;;1.10;1.10;;;;;;;15.02;100.00;96750.59;5071521;27;102876;-62
2022/10/25 09:11:58;;;;;;;2.03;1.10;;;;;;;14.98;100.00;96746.88;5086563;27;105208;-62
2022/10/25 09:14:36;;;;;;;0.90;0.90;;;;;;;15.42;100.00;96750.59;5071389;27;101899;-62
2022/10/25 09:17:12;;;;;;;2.03;1.00;;;;;;;15.86;100.00;96752.31;5070516;27;102584;-62
2022/10/25 09:19:48;;;;;;;1.77;1.00;;;;;;;16.31;100.00;96762.03;5069108;27;105144;-62
2022/10/25 09:22:59;;;;;;;1.20;1.00;;;;;;;16.13;100.00;96752.72;5069789;27;101749;-63
2022/10/25 09:26:11;;;;;;;0.73;0.73;;;;;;;16.04;100.00;96758.94;5072478;27;103736;-63
2022/10/25 09:28:51;;;;;;;0.90;0.90;;;;;;;16.36;100.00;96753.94;5067464;27;102005;-64
2022/10/25 09:31:40;;;;;;;0.80;0.80;;;;;;;16.72;100.00;96755.34;5069286;27;105278;-63
2022/10/25 09:34:10;;;;;;;1.10;1.00;;;;;;;17.18;100.00;96754.72;5065804;27;105246;-63
2022/10/25 09:36:44;;;;;;;1.30;0.70;;;;;;;17.35;100.00;96749.69;5069615;27;101921;-63
2022/10/25 09:39:19;;;;;;;0.70;0.70;;;;;;;17.28;100.00;96757.28;5055763;27;105086;-63
2022/10/25 09:41:50;;;;;;;2.80;1.10;;;;;;;17.47;100.00;96752.00;5048625;27;105310;-63
2022/10/25 09:44:26;;;;;;;0.90;0.90;;;;;;;17.44;100.00;96761.44;5051286;27;101988;-64
2022/10/25 09:46:56;;;;;;;1.90;1.00;;;;;;;17.62;100.00;96754.56;5073249;27;102905;-63
2022/10/25 09:49:32;;;;;;;1.10;1.00;;;;;;;17.29;100.00;96758.91;5069496;27;101882;-61
2022/10/25 09:52:10;;;;;;;3.40;2.10;;;;;;;17.20;100.00;96751.72;5069437;27;105000;-61
2022/10/25 09:54:53;;;;;;;1.20;1.20;;;;;;;17.12;100.00;96755.81;5070057;27;102642;-61
2022/10/25 09:57:21;;;;;;;0.90;0.90;;;;;;;17.16;100.00;96750.69;5069384;27;102165;-63
2022/10/25 09:59:50;;;;;;;2.27;1.77;;;;;;;17.24;100.00;96752.75;5069279;27;105451;-62
2022/10/25 10:02:27;;;;;;;0.80;0.80;;;;;;;17.61;100.00;96753.75;5068663;27;105456;-62
2022/10/25 10:04:55;;;;;;;0.97;0.80;;;;;;;17.60;100.00;96759.44;5071022;27;102012;-62
2022/10/25 10:07:27;;;;;;;0.80;0.80;;;;;;;17.60;100.00;96759.44;5069522;27;105478;-62
2022/10/25 10:10:01;;;;;;;0.60;0.60;;;;;;;17.37;100.00;96760.16;5072188;27;105505;-62
2022/10/25 10:12:43;;;;;;;1.10;0.87;;;;;;;17.35;100.00;96755.06;5069038;27;104079;-62
2022/10/25 10:15:18;;;;;;;0.73;0.70;;;;;;;17.30;100.00;96757.00;5068243;27;105535;-64
2022/10/25 10:17:45;;;;;;;0.70;0.70;;;;;;;17.51;100.00;96748.50;5069217;27;101840;-64
2022/10/25 10:20:16;;;;;;;0.93;0.70;;;;;;;17.55;100.00;96746.03;5063606;27;103680;-64
2022/10/25 10:22:54;;;;;;;1.70;0.90;;;;;;;17.71;100.00;96750.94;5048249;27;103973;-64
2022/10/25 10:25:35;;;;;;;1.30;1.00;;;;;;;17.79;100.00;96738.75;5048596;27;101954;-63
2022/10/25 10:28:17;;;;;;;1.40;0.80;;;;;;;18.12;100.00;96738.63;5048510;27;103780;-64
2022/10/25 10:30:53;;;;;;;1.43;0.80;;;;;;;18.04;100.00;96733.84;4986465;28;103882;-63
2022/10/25 10:33:20;;;;;;;2.30;0.80;;;;;;;18.09;100.00;96741.88;5005371;28;101989;-62
2022/10/25 10:35:48;;;;;;;0.87;0.70;;;;;;;18.16;100.00;96728.06;4970260;28;105595;-63
2022/10/25 10:38:24;;;;;;;1.30;0.70;;;;;;;18.23;100.00;96728.50;4980707;28;101868;-63
2022/10/25 10:40:56;;;;;;;0.70;0.70;;;;;;;17.98;100.00;96736.91;5008449;28;102683;-64
2022/10/25 10:43:27;;;;;;;1.20;0.70;;;;;;;17.95;100.00;96729.41;4993090;28;103975;-63
2022/10/25 10:46:01;;;;;;;1.50;0.90;;;;;;;18.05;100.00;96727.38;5010720;28;101891;-63
2022/10/25 10:48:33;;;;;;;1.63;0.80;;;;;;;18.25;100.00;96726.34;4993015;28;105183;-63
2022/10/25 10:51:47;;;;;;;1.90;0.90;;;;;;;18.33;100.00;96717.63;4989885;28;106224;-64
2022/10/25 10:54:28;;;;;;;1.50;0.90;;;;;;;18.62;100.00;96715.56;4978170;28;102236;-63
2022/10/25 10:56:59;;;;;;;2.93;0.93;;;;;;;18.52;100.00;96713.03;4996458;28;105248;-63
2022/10/25 10:59:33;;;;;;;3.13;0.60;;;;;;;18.72;100.00;96716.22;5010642;28;102060;-63
2022/10/25 11:02:23;;;;;;;1.10;1.00;;;;;;;18.70;100.00;96718.38;4993614;28;105269;-63
2022/10/25 11:04:53;;;;;;;1.13;0.77;;;;;;;18.94;100.00;96710.19;4989130;28;103990;-63
2022/10/25 11:07:29;;;;;;;1.17;0.90;;;;;;;19.05;100.00;96714.31;5005485;27;101960;-63
2022/10/25 11:10:19;;;;;;;1.73;0.87;;;;;;;18.80;100.00;96703.97;5051388;27;104046;-63
2022/10/25 11:13:10;;;;;;;0.60;0.60;;;;;;;19.11;100.00;96702.34;5067707;27;106395;-63
2022/10/25 11:16:22;;;;;;;1.17;0.70;;;;;;;18.97;100.00;96707.72;5045177;27;102118;-63
2022/10/25 11:18:58;;;;;;;1.00;0.80;;;;;;;19.18;100.00;96705.47;4983854;28;105296;-65
2022/10/25 11:21:56;;;;;;;1.47;1.10;;;;;;;19.63;100.00;96699.25;4975271;28;105515;-65
2022/10/25 11:24:33;;;;;;;4.97;1.03;;;;;;;19.62;100.00;96700.38;4989942;28;102561;-65
2022/10/25 11:27:11;;;;;;;1.80;0.80;;;;;;;19.68;100.00;96701.88;4972561;28;105174;-65
2022/10/25 11:29:58;;;;;;;1.07;0.97;;;;;;;20.02;100.00;96696.84;4973659;28;101760;-65
2022/10/25 11:32:46;;;;;;;1.33;0.70;;;;;;;19.61;100.00;96694.16;4990178;28;103109;-65
2022/10/25 11:35:24;;;;;;;0.50;0.50;;;;;;;19.46;100.00;96696.38;4989098;28;106495;-65
2022/10/25 11:37:59;;;;;;;2.27;0.93;;;;;;;20.06;100.00;96689.75;4972671;28;101965;-65
2022/10/25 11:40:30;;;;;;;2.43;1.10;;;;;;;19.81;100.00;96692.94;4989620;28;102424;-65
2022/10/25 11:43:32;;;;;;;7.70;1.00;;;;;;;20.20;100.00;96688.63;4972588;28;103943;-65
2022/10/25 11:46:08;;;;;;;0.80;0.73;;;;;;;20.23;100.00;96689.94;4975972;28;101859;-65
2022/10/25 11:48:48;;;;;;;1.70;0.90;;;;;;;20.57;100.00;96691.03;4972056;28;105589;-65
2022/10/25 11:51:35;;;;;;;1.13;0.70;;;;;;;20.45;100.00;96685.38;4972712;28;102208;-65
2022/10/25 11:54:30;;;;;;;1.20;0.90;;;;;;;19.87;100.00;96683.66;5064376;27;103096;-65
2022/10/25 11:57:07;;;;;;;1.43;0.70;;;;;;;20.35;100.00;96676.69;5070836;27;105085;-64
2022/10/25 11:59:45;;;;;;;2.83;0.83;;;;;;;20.67;100.00;96676.47;5070971;27;102447;-63
2022/10/25 12:02:35;;;;;;;0.80;0.73;;;;;;;20.73;100.00;96675.25;5070336;27;104098;-62
2022/10/25 12:05:14;;;;;;;2.00;0.80;;;;;;;20.72;100.00;96670.94;5070519;27;105755;-62
2022/10/25 12:07:50;;;;;;;1.07;0.80;;;;;;;20.76;100.00;96664.59;5067397;27;103294;-63
2022/10/25 12:10:25;;;;;;;1.17;0.80;;;;;;;20.79;100.00;96657.78;5069500;27;105282;-63
2022/10/25 12:13:00;;;;;;;1.27;0.80;;;;;;;21.04;100.00;96654.50;5069783;27;102252;-62
2022/10/25 12:15:35;;;;;;;1.27;0.60;;;;;;;21.44;100.00;96648.78;5068887;27;105235;-64
2022/10/25 12:18:06;;;;;;;2.70;0.67;;;;;;;21.56;100.00;96651.69;5061460;27;105061;-64
2022/10/25 12:20:36;;;;;;;2.23;0.83;;;;;;;21.50;100.00;96657.56;5070789;27;101816;-63
2022/10/25 12:23:09;;;;;;;3.70;0.90;;;;;;;20.97;100.00;96643.28;5070728;27;104139;-64
2022/10/25 12:26:12;;;;;;;1.23;0.50;;;;;;;20.90;100.00;96643.75;5070008;27;106641;-64
2022/10/25 12:28:45;;;;;;;2.73;0.70;;;;;;;21.79;100.00;96639.69;5072293;27;101733;-64
2022/10/25 12:31:30;;;;;;;0.90;0.70;;;;;;;21.17;100.00;96640.06;5073755;27;104059;-64